createdAt,value
2017-12-13T12:58:18.347Z,0.63
2017-12-13T13:00:46.682Z,0.50
2017-12-13T13:03:17.321Z,0.60
2017-12-13T13:05:45.609Z,0.50
2017-12-13T13:08:13.920Z,0.50
2017-12-13T13:10:42.435Z,0.97
2017-12-13T13:13:10.742Z,0.30
2017-12-13T13:15:38.791Z,0.60
2017-12-13T13:18:07.736Z,0.40
2017-12-13T13:20:40.573Z,0.80
2017-12-13T13:23:08.148Z,0.60
2017-12-13T13:25:35.709Z,0.50
2017-12-13T13:28:04.590Z,0.57
2017-12-13T13:30:32.228Z,0.50
2017-12-13T13:33:01.146Z,0.73
2017-12-13T13:35:41.848Z,0.70
2017-12-13T13:38:11.931Z,0.63
2017-12-13T13:40:40.415Z,0.70
2017-12-13T13:43:11.420Z,0.50
2017-12-13T13:45:41.038Z,0.60
2017-12-13T13:48:16.645Z,0.70
2017-12-13T13:50:44.166Z,0.60
2017-12-13T13:53:11.782Z,0.77
2017-12-13T13:55:40.192Z,0.70
2017-12-13T13:58:11.019Z,0.70
2017-12-13T14:00:39.488Z,0.70
2017-12-13T14:03:08.471Z,0.50
2017-12-13T14:05:44.109Z,0.60
2017-12-13T14:08:22.416Z,0.60
2017-12-13T14:10:49.971Z,0.70
2017-12-13T14:13:17.582Z,0.80
2017-12-13T14:15:45.992Z,0.60
2017-12-13T14:18:19.433Z,0.70
2017-12-13T14:20:53.579Z,0.53
2017-12-13T14:23:21.923Z,0.57
2017-12-13T14:25:55.478Z,0.40
2017-12-13T14:28:23.036Z,0.50
2017-12-13T14:30:52.304Z,0.70
2017-12-13T14:33:19.779Z,0.90
2017-12-13T14:35:48.044Z,0.80
2017-12-13T14:38:15.574Z,0.80
2017-12-13T14:40:44.255Z,0.50
2017-12-13T14:43:11.809Z,0.90
2017-12-13T14:45:43.915Z,0.70
2017-12-13T14:51:13.744Z,0.77
2017-12-13T14:53:42.011Z,0.43
2017-12-13T14:56:09.547Z,0.60
2017-12-13T14:58:37.827Z,0.63
2017-12-13T15:01:05.339Z,0.80
2017-12-13T15:03:32.879Z,0.73
2017-12-13T15:06:00.398Z,0.80
2017-12-13T15:08:28.722Z,1.00
2017-12-13T15:10:56.227Z,0.83
2017-12-13T15:13:23.778Z,0.80
2017-12-13T15:15:51.305Z,1.10
2017-12-13T15:18:19.572Z,1.00
2017-12-13T15:20:47.103Z,0.90
2017-12-13T15:23:14.611Z,1.07
2017-12-13T15:25:42.139Z,1.30
2017-12-13T15:28:09.643Z,1.03
2017-12-13T15:30:37.147Z,1.00
2017-12-13T15:33:05.466Z,1.20
2017-12-13T15:35:32.979Z,0.93
2017-12-13T15:38:00.491Z,0.80
2017-12-13T15:40:28.019Z,0.87
2017-12-13T15:42:55.542Z,1.00
2017-12-13T15:45:23.052Z,0.90
2017-12-13T15:47:50.587Z,1.27
2017-12-13T15:50:18.092Z,1.17
2017-12-13T15:52:45.620Z,1.10
2017-12-13T15:55:13.123Z,0.93
2017-12-13T15:57:40.669Z,0.90
2017-12-13T16:00:08.195Z,1.20
2017-12-13T16:02:35.719Z,0.90
2017-12-13T16:05:03.272Z,1.20
2017-12-13T16:07:31.535Z,1.20
2017-12-13T16:09:59.037Z,1.27
2017-12-13T16:12:26.560Z,1.40
2017-12-13T16:14:54.083Z,1.10
2017-12-13T16:17:21.603Z,1.80
2017-12-13T16:19:49.136Z,1.20
2017-12-13T16:22:16.626Z,1.20
2017-12-13T16:24:44.151Z,1.10
2017-12-13T16:27:12.424Z,1.33
2017-12-13T16:29:39.955Z,1.10
2017-12-13T16:32:07.507Z,1.20
2017-12-13T16:34:35.012Z,1.23
2017-12-13T16:37:02.545Z,1.37
2017-12-13T16:39:30.051Z,1.57
2017-12-13T16:41:57.579Z,1.57
2017-12-13T16:44:25.852Z,1.90
2017-12-13T16:46:54.163Z,1.70
2017-12-13T16:49:21.658Z,1.80
2017-12-13T16:51:49.170Z,5.30
2017-12-13T16:54:16.699Z,2.23
2017-12-13T16:56:44.223Z,2.13
2017-12-13T16:59:12.499Z,1.20
2017-12-13T17:01:40.044Z,1.43
2017-12-13T17:04:07.563Z,1.67
2017-12-13T17:06:35.878Z,1.37
2017-12-13T17:09:03.415Z,1.33
2017-12-13T17:11:31.717Z,1.67
2017-12-13T17:13:59.993Z,1.50
2017-12-13T17:16:28.287Z,1.23
2017-12-13T17:18:56.571Z,1.23
2017-12-13T17:21:24.906Z,1.60
2017-12-13T17:23:52.407Z,1.63
2017-12-13T17:26:19.920Z,1.50
2017-12-13T17:28:47.468Z,1.60
2017-12-13T17:31:14.973Z,1.97
2017-12-13T17:33:42.495Z,1.80
2017-12-13T17:36:10.044Z,1.70
2017-12-13T17:38:37.554Z,1.50
2017-12-13T17:41:05.131Z,2.20
2017-12-13T17:43:33.448Z,1.43
2017-12-13T17:46:00.957Z,1.40
2017-12-13T17:48:28.457Z,1.47
2017-12-13T17:50:55.986Z,1.53
2017-12-13T17:53:23.495Z,1.10
2017-12-13T17:55:51.044Z,1.77
2017-12-13T17:58:18.550Z,1.33
2017-12-13T18:00:46.053Z,1.57
2017-12-13T18:03:13.602Z,1.47
2017-12-13T18:05:41.878Z,1.50
2017-12-13T18:08:09.436Z,1.30
2017-12-13T18:10:36.964Z,1.30
2017-12-13T18:13:04.495Z,1.50
2017-12-13T18:15:32.767Z,1.40
2017-12-13T18:18:00.295Z,2.03
2017-12-13T18:20:27.838Z,1.50
2017-12-13T18:22:56.098Z,1.67
2017-12-13T18:25:23.637Z,1.53
2017-12-13T18:27:51.145Z,2.10
2017-12-13T18:30:18.687Z,1.50
2017-12-13T18:32:46.200Z,1.73
2017-12-13T18:35:13.707Z,2.20
2017-12-13T18:37:41.235Z,1.83
2017-12-13T18:40:09.505Z,2.03
2017-12-13T18:42:37.064Z,1.60
2017-12-13T18:45:04.607Z,1.50
2017-12-13T18:47:32.147Z,1.90
2017-12-13T18:49:59.658Z,1.53
2017-12-13T18:52:27.168Z,1.47
2017-12-13T18:54:54.700Z,1.53
2017-12-13T18:57:22.208Z,1.33
2017-12-13T18:59:49.741Z,1.33
2017-12-13T19:02:17.246Z,1.40
2017-12-13T19:04:44.800Z,1.57
2017-12-13T19:07:12.370Z,1.33
2017-12-13T19:09:39.897Z,1.80
2017-12-13T19:12:08.239Z,1.73
2017-12-13T19:14:35.791Z,2.47
2017-12-13T19:17:03.347Z,1.80
2017-12-13T19:19:30.879Z,1.73
2017-12-13T19:21:58.417Z,1.53
2017-12-13T19:24:25.927Z,1.67
2017-12-13T19:26:53.465Z,1.47
2017-12-13T19:29:20.974Z,1.20
2017-12-13T19:31:48.524Z,1.53
2017-12-13T19:34:16.048Z,1.03
2017-12-13T19:36:43.575Z,1.97
2017-12-13T19:39:11.101Z,1.43
2017-12-13T19:41:38.621Z,1.47
2017-12-13T19:44:06.192Z,4.80
2017-12-13T19:46:33.705Z,1.67
2017-12-13T19:49:01.213Z,2.97
2017-12-13T19:51:28.751Z,1.67
2017-12-13T19:53:56.263Z,1.00
2017-12-13T19:56:23.807Z,1.30
2017-12-13T19:58:51.321Z,1.70
2017-12-13T20:01:18.845Z,1.80
2017-12-13T20:03:46.378Z,1.57
2017-12-13T20:06:13.894Z,1.03
2017-12-13T20:08:41.435Z,1.07
2017-12-13T20:11:09.775Z,0.93
2017-12-13T20:13:37.296Z,1.20
2017-12-13T20:16:05.696Z,0.60
2017-12-13T20:18:33.203Z,0.70
2017-12-13T20:21:00.711Z,1.00
2017-12-13T20:23:29.011Z,0.70
2017-12-13T20:25:57.314Z,0.80
2017-12-13T20:28:24.824Z,0.93
2017-12-13T20:30:52.365Z,1.70
2017-12-13T20:33:19.916Z,1.30
2017-12-13T20:35:48.218Z,0.90
2017-12-13T20:38:16.496Z,0.60
2017-12-13T20:40:44.759Z,1.90
2017-12-13T20:43:12.288Z,0.80
2017-12-13T20:45:39.850Z,1.00
2017-12-13T20:48:07.383Z,0.97
2017-12-13T20:50:36.326Z,3.03
2017-12-13T20:53:03.834Z,2.43
2017-12-13T20:55:31.366Z,2.60
2017-12-13T20:57:58.891Z,1.47
2017-12-13T21:00:26.426Z,1.70
2017-12-13T21:02:53.927Z,2.17
2017-12-13T21:05:21.475Z,1.10
2017-12-13T21:07:48.996Z,1.07
2017-12-13T21:10:17.298Z,1.00
2017-12-13T21:12:45.628Z,1.00
2017-12-13T21:15:13.148Z,1.13
2017-12-13T21:17:41.486Z,0.80
2017-12-13T21:20:09.027Z,1.03
2017-12-13T21:22:37.299Z,1.73
2017-12-13T21:25:05.619Z,1.77
2017-12-13T21:27:33.123Z,2.10
2017-12-13T21:30:00.662Z,3.13
2017-12-13T21:32:28.166Z,0.83
2017-12-13T21:34:55.685Z,4.20
2017-12-13T21:37:23.261Z,3.13
2017-12-13T21:39:51.540Z,3.33
2017-12-13T21:42:20.036Z,1.50
2017-12-13T21:44:48.353Z,2.10
2017-12-13T21:47:15.908Z,1.60
2017-12-13T21:49:43.487Z,2.37
2017-12-13T21:52:11.021Z,3.47
2017-12-13T21:54:38.563Z,2.70
2017-12-13T21:57:06.114Z,1.60
2017-12-13T21:59:33.689Z,1.90
2017-12-13T22:02:01.388Z,0.97
2017-12-13T22:04:28.924Z,1.00
2017-12-13T22:06:56.476Z,2.27
2017-12-13T22:09:24.115Z,1.33
2017-12-13T22:11:52.458Z,1.30
2017-12-13T22:14:23.989Z,1.63
2017-12-13T22:16:52.087Z,1.90
2017-12-13T22:19:20.359Z,1.90
2017-12-13T22:21:47.913Z,1.50
2017-12-13T22:24:15.436Z,1.57
2017-12-13T22:26:43.821Z,1.60
2017-12-13T22:29:12.133Z,2.23
2017-12-13T22:31:39.666Z,2.20
2017-12-13T22:34:07.203Z,2.03
2017-12-13T22:36:34.740Z,1.70
2017-12-13T22:39:02.288Z,1.90
2017-12-13T22:41:29.789Z,2.70
2017-12-13T22:43:57.332Z,2.40
2017-12-13T22:46:25.608Z,4.33
2017-12-13T22:48:53.136Z,1.70
2017-12-13T22:51:20.695Z,2.93
2017-12-13T22:53:48.220Z,1.83
2017-12-13T22:56:15.726Z,2.50
2017-12-13T22:58:44.032Z,2.00
2017-12-13T23:01:11.544Z,1.90
2017-12-13T23:03:39.047Z,1.80
2017-12-13T23:06:07.344Z,2.37
2017-12-13T23:08:35.611Z,2.77
2017-12-13T23:11:03.920Z,2.10
2017-12-13T23:13:31.428Z,2.30
2017-12-13T23:15:58.932Z,2.50
2017-12-13T23:18:26.464Z,2.47
2017-12-13T23:20:53.967Z,2.47
2017-12-13T23:23:21.491Z,2.40
2017-12-13T23:25:49.004Z,2.70
2017-12-13T23:28:16.535Z,2.80
2017-12-13T23:30:44.041Z,2.80
2017-12-13T23:33:11.566Z,2.70
2017-12-13T23:35:39.088Z,3.80
2017-12-13T23:38:06.635Z,2.87
2017-12-13T23:40:34.184Z,3.07
2017-12-13T23:43:01.687Z,2.60
2017-12-13T23:45:29.234Z,2.37
2017-12-13T23:47:56.737Z,2.13
2017-12-13T23:50:24.251Z,2.20
2017-12-13T23:52:52.561Z,3.00
2017-12-13T23:55:20.064Z,2.13
2017-12-13T23:57:47.597Z,1.97
